Ahmedabad, India

1:40 PM IST on August 27, 2016 (GMT +0530)
Ahmedabad | | Change Station

Elev 180 ft 23.08 °N, 72.63 °E | Updated 10 minutes ago

Haze
Haze
90 °F
Feels Like 105 °F
N
2
Wind Variable Wind from Variable

Today
High -- | Low -- °F
--% Chance of Precip.
Yesterday
High -- | Low -- °F
Precip. -- in
Pressure 29.65 in
Visibility 3.1 miles
Clouds Few 2000 ft
Scattered Clouds 2500 ft
Heat Index 105 °F
Dew Point 79 °F
Humidity 70%
Rainfall 0.00 in
Snow Depth Not available.
6:20 AM 7:01 PM
Waning Crescent, 26% visible
METAR VAAH 270800Z VRB02KT 5000 HZ FEW020 SCT025 32/26 Q1004 NOSIG
Pressure 29.65 in
Visibility 3.1 miles
Clouds Few 2000 ft
Scattered Clouds 2500 ft
Heat Index 105 °F
Dew Point 79 °F
Humidity 70%
Rainfall 0.00 in
Snow Depth Not available.
6:20 AM 7:01 PM
Waning Crescent, 26% visible
METAR VAAH 270800Z VRB02KT 5000 HZ FEW020 SCT025 32/26 Q1004 NOSIG

10-Day Weather Forecast

No radar image for this location.
×

Almanac

Astronomy

Aug. 27, 2016 Rise Set
Actual Time
Civil Twilight
Nautical Twilight
Astronomical Twilight
Moon
Length of Visible Light
Length of Day
Tomorrow will be .
, % of the Moon is Illuminated

Today's Extremes

Country Highs Country Lows

Community

WunderPhotos

Upload Photos

1,935,303 photos uploaded!

WunderBlog® & News

Nearby

Air Quality

  Air Quality AQ Index Pollutant
Not available.

Snow Depth

Station Depth Elevation

Earthquake Activity

City Distance Mag. Time & Date
Minimum magnitude displayed is 2.5.

Coastal Water Temperatures

Place Temperature

Stations

Nearby Weather Stations

Station Location Temp. Windchill Dew Point Humidity Wind Precip. Elev Updated Type